Time;durP1;ratioP1;P1;durP2;ratioP2;P2;SDS_P1;SDS_P2;PMS_P1;PMS_P2;Temp;Humidity;BMP_temperature;BMP_pressure;BME280_temperature;BME280_humidity;BME280_pressure;Samples;Min_cycle;Max_cycle;Signal;HPM_P1;HPM_P2
2024/01/12 00:00:58;;;;;;;29.55;10.80;;;-1.50;99.90;;;;;;4815431;29;20207;-79
2024/01/12 00:03:26;;;;;;;33.80;12.73;;;-1.50;99.90;;;;;;4810893;29;20064;-79
2024/01/12 00:05:55;;;;;;;36.97;12.98;;;-1.50;99.90;;;;;;4814879;29;22790;-78
2024/01/12 00:08:24;;;;;;;32.45;12.75;;;-1.50;99.90;;;;;;4818969;29;24839;-78
2024/01/12 00:10:52;;;;;;;32.05;11.70;;;-1.50;99.90;;;;;;4800225;29;20737;-78
2024/01/12 00:13:22;;;;;;;29.10;11.95;;;-1.60;99.90;;;;;;4818996;29;20062;-79
2024/01/12 00:15:50;;;;;;;30.15;12.05;;;-1.60;99.90;;;;;;4802788;29;20057;-79
2024/01/12 00:18:20;;;;;;;29.17;11.75;;;-0.80;99.90;;;;;;4802795;29;20057;-79
2024/01/12 00:20:49;;;;;;;29.48;11.30;;;-1.70;99.90;;;;;;4819925;29;20053;-79
2024/01/12 00:23:17;;;;;;;28.33;10.88;;;-1.70;99.90;;;;;;4818723;29;20065;-79
2024/01/12 00:25:46;;;;;;;27.42;9.52;;;-1.70;99.90;;;;;;4831867;29;20088;-79
2024/01/12 00:28:14;;;;;;;26.40;10.00;;;-0.90;99.90;;;;;;4804807;29;20058;-79
2024/01/12 00:30:45;;;;;;;28.80;10.05;;;-1.40;99.90;;;;;;4822772;29;20090;-79
2024/01/12 00:33:13;;;;;;;28.83;10.15;;;-1.80;99.90;;;;;;4821976;29;20049;-79
2024/01/12 00:35:43;;;;;;;24.63;9.43;;;-0.60;99.90;;;;;;4824648;29;20141;-79
2024/01/12 00:38:12;;;;;;;28.60;10.10;;;-1.00;99.90;;;;;;4822145;29;20061;-79
2024/01/12 00:40:41;;;;;;;27.25;10.57;;;-0.80;99.90;;;;;;4805812;29;20234;-78
2024/01/12 00:43:09;;;;;;;29.52;11.00;;;-1.40;99.90;;;;;;4816224;29;20050;-79
2024/01/12 00:45:38;;;;;;;29.08;11.00;;;-1.70;99.90;;;;;;4812876;29;20814;-79
2024/01/12 00:48:07;;;;;;;29.85;11.95;;;-1.70;99.90;;;;;;4819309;29;20118;-78
2024/01/12 00:50:36;;;;;;;34.60;11.30;;;-1.70;99.90;;;;;;4814450;29;20065;-79
2024/01/12 00:53:06;;;;;;;28.05;11.82;;;-1.70;99.90;;;;;;4804444;29;20077;-79
2024/01/12 00:55:35;;;;;;;29.55;10.85;;;-1.70;99.90;;;;;;4808296;29;20836;-80
2024/01/12 00:58:03;;;;;;;29.48;11.32;;;-1.70;99.90;;;;;;4819344;29;20148;-78
2024/01/12 01:00:32;;;;;;;27.20;10.30;;;-1.70;99.90;;;;;;4813865;29;20065;-79
2024/01/12 01:03:01;;;;;;;29.05;9.60;;;-1.70;99.90;;;;;;4819960;29;20143;-78
2024/01/12 01:05:30;;;;;;;25.25;10.43;;;-1.70;99.90;;;;;;4822585;29;20133;-79
2024/01/12 01:07:59;;;;;;;26.55;10.57;;;-1.70;99.90;;;;;;4803121;29;20053;-79
2024/01/12 01:10:29;;;;;;;28.13;9.80;;;-1.60;99.90;;;;;;4821234;29;20502;-79
2024/01/12 01:12:57;;;;;;;27.48;10.65;;;-1.60;99.90;;;;;;4820599;29;20589;-79
2024/01/12 01:15:25;;;;;;;31.65;10.13;;;-1.60;99.90;;;;;;4823397;29;22779;-78
2024/01/12 01:17:54;;;;;;;25.52;10.40;;;-1.60;99.90;;;;;;4807449;29;22617;-79
2024/01/12 01:20:22;;;;;;;25.88;9.82;;;-1.60;99.90;;;;;;4823974;29;20774;-79
2024/01/12 01:22:51;;;;;;;29.83;11.45;;;-1.70;99.90;;;;;;4818175;29;20221;-79
2024/01/12 01:25:19;;;;;;;33.35;12.50;;;-1.60;99.90;;;;;;4810108;29;20064;-79
2024/01/12 01:27:49;;;;;;;35.78;12.40;;;-1.60;99.90;;;;;;4819888;29;20095;-79
2024/01/12 01:30:18;;;;;;;30.98;11.98;;;-1.60;99.90;;;;;;4817850;29;20058;-79
2024/01/12 01:32:47;;;;;;;31.00;12.40;;;-1.70;99.90;;;;;;4818689;29;20407;-79
2024/01/12 01:35:17;;;;;;;28.58;11.35;;;-1.60;99.90;;;;;;4815159;29;20414;-79
2024/01/12 01:37:45;;;;;;;31.05;10.95;;;-1.70;99.90;;;;;;4807919;29;20148;-78
2024/01/12 01:40:14;;;;;;;28.40;11.00;;;-0.60;99.90;;;;;;4819463;29;20071;-79
2024/01/12 01:42:42;;;;;;;28.75;10.85;;;-1.70;99.90;;;;;;4834106;29;20375;-79
2024/01/12 01:45:12;;;;;;;28.73;10.82;;;-1.70;99.90;;;;;;4820263;29;20054;-79
2024/01/12 01:47:41;;;;;;;25.48;10.23;;;-1.70;99.90;;;;;;4816396;29;20070;-79
2024/01/12 01:50:11;;;;;;;25.92;11.32;;;-1.50;99.90;;;;;;4827541;29;20111;-79
2024/01/12 01:52:40;;;;;;;32.85;11.30;;;-1.70;99.90;;;;;;4837864;29;20798;-75
2024/01/12 01:55:09;;;;;;;30.40;10.38;;;-1.70;99.90;;;;;;4848502;29;20085;-75
2024/01/12 01:57:40;;;;;;;30.17;10.85;;;-1.70;99.90;;;;;;4857050;29;20105;-79
2024/01/12 02:00:10;;;;;;;33.67;12.32;;;-1.80;99.90;;;;;;4841038;29;20524;-76
2024/01/12 02:02:42;;;;;;;30.10;10.75;;;-1.80;99.90;;;;;;4824424;29;20088;-76
2024/01/12 02:05:13;;;;;;;39.25;12.02;;;-1.60;99.90;;;;;;4837232;29;20056;-75
2024/01/12 02:07:42;;;;;;;38.25;12.60;;;-1.80;99.90;;;;;;4844181;29;20061;-76
2024/01/12 02:10:10;;;;;;;31.88;12.68;;;-1.90;99.90;;;;;;4843666;29;20241;-76
2024/01/12 02:12:39;;;;;;;34.97;14.00;;;-1.90;99.90;;;;;;4860169;29;20061;-75
2024/01/12 02:15:08;;;;;;;31.48;12.45;;;-1.80;99.90;;;;;;4850088;29;20060;-74
2024/01/12 02:17:37;;;;;;;40.13;13.27;;;-1.90;99.90;;;;;;4840765;29;20060;-75
2024/01/12 02:20:08;;;;;;;33.97;11.75;;;-2.00;99.90;;;;;;4844001;29;20064;-76
2024/01/12 02:22:38;;;;;;;39.75;12.65;;;-2.00;99.90;;;;;;4839018;29;20056;-75
2024/01/12 02:25:08;;;;;;;35.92;11.70;;;-2.00;99.90;;;;;;4821300;29;20064;-75
2024/01/12 02:27:37;;;;;;;38.60;13.63;;;-2.00;99.90;;;;;;4846228;29;20127;-74
2024/01/12 02:30:06;;;;;;;37.90;12.73;;;-2.00;99.90;;;;;;4839555;29;20068;-76
2024/01/12 02:32:35;;;;;;;32.20;12.02;;;-2.00;99.90;;;;;;4843461;29;22139;-75
2024/01/12 02:35:04;;;;;;;35.40;12.07;;;-2.00;99.90;;;;;;4855162;29;20164;-75
2024/01/12 02:37:33;;;;;;;36.13;12.88;;;-2.00;99.90;;;;;;4820505;29;20075;-76
2024/01/12 02:40:02;;;;;;;43.58;14.05;;;-2.00;99.90;;;;;;4839257;29;20053;-77
2024/01/12 02:42:30;;;;;;;41.40;13.68;;;-0.90;99.90;;;;;;4849723;29;20132;-76
2024/01/12 02:44:59;;;;;;;38.55;12.52;;;-2.10;99.90;;;;;;4821427;29;20053;-76
2024/01/12 02:47:28;;;;;;;37.65;12.93;;;-2.00;99.90;;;;;;4839861;29;20116;-76
2024/01/12 02:49:56;;;;;;;37.58;13.02;;;-2.00;99.90;;;;;;4842794;29;20423;-74
2024/01/12 02:52:25;;;;;;;31.58;13.27;;;-2.00;99.90;;;;;;4825410;29;20061;-76
2024/01/12 02:54:53;;;;;;;35.10;12.85;;;-1.90;99.90;;;;;;4854083;29;20132;-74
2024/01/12 02:57:23;;;;;;;35.78;13.63;;;-1.90;99.90;;;;;;4838886;29;20144;-77
2024/01/12 02:59:51;;;;;;;29.80;12.10;;;-1.90;99.90;;;;;;4825986;29;20057;-75
2024/01/12 03:02:20;;;;;;;32.92;12.30;;;-1.90;99.90;;;;;;4839921;29;20096;-76
2024/01/12 03:04:50;;;;;;;30.08;12.02;;;-1.90;99.90;;;;;;4848919;29;20049;-77
2024/01/12 03:07:19;;;;;;;31.38;12.18;;;-1.90;99.90;;;;;;4865612;29;20045;-78
2024/01/12 03:09:48;;;;;;;35.60;12.63;;;-1.90;99.90;;;;;;4862160;29;20037;-77
2024/01/12 03:12:22;;;;;;;40.95;13.63;;;-1.90;99.90;;;;;;4846240;29;20054;-77
2024/01/12 03:14:54;;;;;;;29.52;11.30;;;-1.90;99.90;;;;;;4846700;29;20052;-77
2024/01/12 03:17:23;;;;;;;34.38;12.52;;;-0.70;99.90;;;;;;4863159;29;20037;-77
2024/01/12 03:19:53;;;;;;;35.55;13.00;;;-1.80;99.90;;;;;;4848107;29;20033;-78
2024/01/12 03:22:22;;;;;;;36.25;13.20;;;-1.50;99.90;;;;;;4851960;29;20072;-77
2024/01/12 03:24:51;;;;;;;41.35;14.23;;;-1.90;99.90;;;;;;4864150;29;20042;-78
2024/01/12 03:27:19;;;;;;;35.53;13.10;;;-2.90;99.90;;;;;;4857924;29;20037;-78
2024/01/12 03:29:50;;;;;;;31.23;11.32;;;0.10;99.90;;;;;;4862323;29;20105;-78
2024/01/12 03:32:19;;;;;;;36.28;13.45;;;-0.10;99.90;;;;;;4864352;29;20064;-77
2024/01/12 03:34:49;;;;;;;32.63;12.80;;;-2.50;99.90;;;;;;4865551;29;20163;-78
2024/01/12 03:37:19;;;;;;;33.38;12.45;;;-0.20;99.90;;;;;;4850205;29;20029;-78
2024/01/12 03:39:49;;;;;;;33.40;12.63;;;-1.90;99.90;;;;;;4864626;29;20037;-78
2024/01/12 03:42:18;;;;;;;34.00;13.65;;;-1.30;99.90;;;;;;4864208;29;20061;-77
2024/01/12 03:44:49;;;;;;;33.58;14.07;;;-2.00;99.90;;;;;;4873009;29;20072;-78
2024/01/12 03:47:18;;;;;;;38.97;15.15;;;-1.60;99.90;;;;;;4858426;29;20059;-78
2024/01/12 03:49:49;;;;;;;38.22;14.07;;;-2.20;99.90;;;;;;4863097;29;20054;-78
2024/01/12 03:52:18;;;;;;;39.15;15.38;;;-3.60;99.90;;;;;;4863406;29;20065;-77
2024/01/12 03:54:47;;;;;;;33.78;14.23;;;-0.40;99.90;;;;;;4863574;29;20037;-77
2024/01/12 03:57:18;;;;;;;32.13;13.50;;;-1.90;99.90;;;;;;4874937;23;20049;-77
2024/01/12 03:59:49;;;;;;;37.30;14.10;;;-1.90;99.90;;;;;;4857160;29;20080;-77
2024/01/12 04:02:18;;;;;;;40.03;15.15;;;-1.90;99.90;;;;;;4833743;29;20054;-77
2024/01/12 04:04:47;;;;;;;44.97;16.52;;;-2.00;99.90;;;;;;4832597;29;20061;-77
2024/01/12 04:07:16;;;;;;;47.70;17.42;;;-1.80;99.90;;;;;;4853196;29;20044;-77
2024/01/12 04:09:45;;;;;;;40.78;16.00;;;-1.60;99.90;;;;;;4854840;29;20057;-77
2024/01/12 04:12:14;;;;;;;43.30;15.73;;;-1.90;99.90;;;;;;4856886;29;20110;-77
2024/01/12 04:14:45;;;;;;;45.28;15.95;;;-1.90;99.90;;;;;;4832727;29;20164;-78
2024/01/12 04:17:15;;;;;;;38.67;15.68;;;-0.90;99.90;;;;;;4830041;29;20099;-77
2024/01/12 04:19:44;;;;;;;35.40;15.15;;;-1.90;99.90;;;;;;4832623;29;20057;-77
2024/01/12 04:22:12;;;;;;;41.50;14.75;;;-1.90;99.90;;;;;;4830527;29;20108;-78
2024/01/12 04:24:41;;;;;;;43.25;15.40;;;-1.90;99.90;;;;;;4829353;29;20053;-78
2024/01/12 04:27:09;;;;;;;41.15;15.82;;;-1.90;99.90;;;;;;4827779;29;20761;-78
2024/01/12 04:29:39;;;;;;;39.75;15.30;;;-1.90;99.90;;;;;;4829339;29;20053;-77
2024/01/12 04:32:07;;;;;;;46.28;16.65;;;-1.80;99.90;;;;;;4814151;29;20521;-77
2024/01/12 04:34:37;;;;;;;45.20;16.05;;;-1.90;99.90;;;;;;4831317;29;20076;-78
2024/01/12 04:37:06;;;;;;;40.08;13.80;;;-1.90;99.90;;;;;;4813365;29;20533;-78
2024/01/12 04:39:35;;;;;;;37.25;13.93;;;-1.90;99.90;;;;;;4832032;29;20049;-78
2024/01/12 04:42:04;;;;;;;42.60;14.35;;;-1.90;99.90;;;;;;4826567;29;20064;-78
2024/01/12 04:44:32;;;;;;;38.75;15.50;;;-1.90;99.90;;;;;;4844412;29;20049;-77
2024/01/12 04:47:00;;;;;;;34.22;15.13;;;-1.90;99.90;;;;;;4836290;29;22617;-78
2024/01/12 04:49:29;;;;;;;33.15;13.70;;;-1.00;99.90;;;;;;4832634;29;20068;-78
2024/01/12 04:51:59;;;;;;;35.15;13.95;;;-1.90;99.90;;;;;;4831019;29;20079;-77
2024/01/12 04:54:28;;;;;;;36.58;13.10;;;-1.90;99.90;;;;;;4826116;29;20068;-78
2024/01/12 04:56:56;;;;;;;37.63;14.30;;;-1.60;99.90;;;;;;4838845;29;20050;-78
2024/01/12 04:59:25;;;;;;;32.67;12.25;;;-1.90;99.90;;;;;;4832261;29;22671;-77
2024/01/12 05:01:54;;;;;;;29.65;11.43;;;-1.90;99.90;;;;;;4824710;29;20116;-78
2024/01/12 05:04:22;;;;;;;31.40;11.55;;;-1.90;99.90;;;;;;4833129;29;20065;-78
2024/01/12 05:06:51;;;;;;;30.73;11.70;;;-1.90;99.90;;;;;;4837539;29;20038;-78
2024/01/12 05:09:21;;;;;;;33.78;11.77;;;-1.90;99.90;;;;;;4822484;29;20064;-77
2024/01/12 05:11:50;;;;;;;29.88;12.70;;;-1.90;99.90;;;;;;4838865;29;20085;-78
2024/01/12 05:14:19;;;;;;;34.70;12.55;;;-1.90;99.90;;;;;;4814192;29;20202;-77
2024/01/12 05:16:48;;;;;;;36.95;12.80;;;-1.80;99.90;;;;;;4812873;29;20836;-77
2024/01/12 05:19:17;;;;;;;33.00;12.07;;;-1.90;99.90;;;;;;4833264;29;20050;-77
2024/01/12 05:21:45;;;;;;;29.70;12.45;;;-1.80;99.90;;;;;;4830899;29;20064;-77
2024/01/12 05:24:14;;;;;;;32.65;12.00;;;-1.80;99.90;;;;;;4837594;29;20084;-77
2024/01/12 05:26:44;;;;;;;30.52;11.93;;;-1.80;99.90;;;;;;4829276;29;20038;-77
2024/01/12 05:29:14;;;;;;;29.13;10.05;;;-1.80;99.90;;;;;;4826509;29;22400;-78
2024/01/12 05:31:44;;;;;;;34.90;12.25;;;-1.80;99.90;;;;;;4829245;29;20061;-78
2024/01/12 05:34:12;;;;;;;29.55;11.20;;;-1.80;99.90;;;;;;4826682;29;20874;-78
2024/01/12 05:36:41;;;;;;;37.85;12.30;;;-1.80;99.90;;;;;;4841807;29;20863;-78
2024/01/12 05:39:10;;;;;;;43.20;14.57;;;-1.80;99.90;;;;;;4815619;29;20152;-78
2024/01/12 05:41:39;;;;;;;47.40;15.15;;;-1.80;99.90;;;;;;4815301;29;20725;-77
2024/01/12 05:44:09;;;;;;;43.17;14.82;;;-1.60;99.90;;;;;;4809895;29;20068;-77
2024/01/12 05:46:38;;;;;;;38.15;15.07;;;-1.80;99.90;;;;;;4826562;29;20544;-78
2024/01/12 05:49:07;;;;;;;31.42;12.98;;;-1.80;99.90;;;;;;4844760;29;20053;-78
2024/01/12 05:51:35;;;;;;;35.33;13.05;;;-1.80;99.90;;;;;;4830439;29;20545;-78
2024/01/12 05:54:04;;;;;;;35.80;11.68;;;-1.80;99.90;;;;;;4831082;29;20140;-78
2024/01/12 05:56:33;;;;;;;34.05;12.40;;;-1.80;99.90;;;;;;4829858;29;20064;-78
2024/01/12 05:59:02;;;;;;;26.63;11.13;;;-1.70;99.90;;;;;;4832326;29;22637;-77
2024/01/12 06:01:32;;;;;;;29.85;10.60;;;-1.70;99.90;;;;;;4839214;29;20429;-78
2024/01/12 06:04:01;;;;;;;33.65;11.00;;;-1.70;99.90;;;;;;4838627;29;20501;-78
2024/01/12 06:06:30;;;;;;;41.72;14.27;;;-1.80;99.90;;;;;;4817121;29;20060;-78
2024/01/12 06:08:58;;;;;;;40.00;15.88;;;-1.80;99.90;;;;;;4842311;29;20149;-78
2024/01/12 06:11:27;;;;;;;43.60;17.90;;;-1.70;99.90;;;;;;4813709;29;20129;-78
2024/01/12 06:13:55;;;;;;;57.55;22.02;;;-1.80;99.90;;;;;;4840533;29;20114;-78
2024/01/12 06:16:24;;;;;;;51.05;20.95;;;-1.60;99.90;;;;;;4834665;29;20616;-78
2024/01/12 06:18:53;;;;;;;42.50;15.60;;;-1.80;99.90;;;;;;4814154;29;20068;-78
2024/01/12 06:21:22;;;;;;;32.70;12.95;;;-1.80;99.90;;;;;;4847303;29;20429;-78
2024/01/12 06:23:50;;;;;;;36.92;13.70;;;-1.80;99.90;;;;;;4831777;29;20068;-78
2024/01/12 06:26:19;;;;;;;35.53;14.10;;;-1.80;99.90;;;;;;4831779;29;20041;-78
2024/01/12 06:28:47;;;;;;;49.33;17.33;;;-1.80;99.90;;;;;;4827610;29;20060;-78
2024/01/12 06:31:16;;;;;;;39.60;16.17;;;-1.80;99.90;;;;;;4830970;29;20186;-78
2024/01/12 06:33:45;;;;;;;34.42;14.23;;;-1.80;99.90;;;;;;4816473;29;20077;-73
2024/01/12 06:36:15;;;;;;;48.20;15.82;;;-1.80;99.90;;;;;;4818232;29;20138;-76
2024/01/12 06:38:43;;;;;;;39.78;16.02;;;-0.90;99.90;;;;;;4833376;29;20057;-76
2024/01/12 06:41:11;;;;;;;36.30;13.35;;;-1.90;99.90;;;;;;4819879;29;20152;-75
2024/01/12 06:43:40;;;;;;;35.30;12.52;;;-1.90;99.90;;;;;;4816778;29;20065;-74
2024/01/12 06:46:08;;;;;;;29.95;11.57;;;-1.90;99.90;;;;;;4835116;29;20509;-75
2024/01/12 06:48:37;;;;;;;43.50;15.35;;;-1.90;99.90;;;;;;4835919;29;20061;-77
2024/01/12 06:51:06;;;;;;;43.30;16.73;;;-1.90;99.90;;;;;;4822232;29;20057;-76
2024/01/12 06:53:36;;;;;;;36.83;15.82;;;-1.90;99.90;;;;;;4818174;29;22529;-75
2024/01/12 06:56:06;;;;;;;37.90;15.80;;;-1.90;99.90;;;;;;4832350;29;20153;-76
2024/01/12 06:58:35;;;;;;;37.80;14.45;;;-2.00;99.90;;;;;;4835276;29;21163;-77
2024/01/12 07:01:04;;;;;;;31.63;12.30;;;-1.90;99.90;;;;;;4832107;29;20081;-77
2024/01/12 07:03:33;;;;;;;33.42;13.18;;;-2.00;99.90;;;;;;4818921;29;20541;-75
2024/01/12 07:06:01;;;;;;;34.60;12.20;;;-2.00;99.90;;;;;;4833900;29;20145;-75
2024/01/12 07:08:30;;;;;;;30.17;11.82;;;-2.00;99.90;;;;;;4833855;29;20061;-76
2024/01/12 07:11:03;;;;;;;33.17;14.55;;;-2.00;99.90;;;;;;4831930;29;20071;-74
2024/01/12 07:13:31;;;;;;;57.13;18.98;;;-2.00;99.90;;;;;;4836062;29;20062;-74
2024/01/12 07:16:00;;;;;;;47.90;17.65;;;-2.00;99.90;;;;;;4832999;29;20053;-75
2024/01/12 07:18:30;;;;;;;50.97;19.17;;;-1.90;99.90;;;;;;4833988;29;22861;-75
2024/01/12 07:21:03;;;;;;;32.97;13.70;;;-1.90;99.90;;;;;;4829827;29;20110;-75
2024/01/12 07:23:32;;;;;;;35.50;13.13;;;-1.90;99.90;;;;;;4834948;29;20167;-76
2024/01/12 07:26:03;;;;;;;33.03;12.60;;;-1.80;99.90;;;;;;4841456;29;21070;-75
2024/01/12 07:28:32;;;;;;;34.00;14.80;;;-1.80;99.90;;;;;;4839373;29;20162;-76
2024/01/12 07:31:00;;;;;;;43.55;15.15;;;-1.80;99.90;;;;;;4817385;29;21078;-74
2024/01/12 07:33:29;;;;;;;42.55;15.95;;;-1.80;99.90;;;;;;4837119;29;20059;-76
2024/01/12 07:35:58;;;;;;;38.58;13.15;;;-1.70;99.90;;;;;;4834497;29;21070;-75
2024/01/12 07:38:27;;;;;;;34.28;10.18;;;-1.70;99.90;;;;;;4821515;29;20057;-76
2024/01/12 07:40:56;;;;;;;45.42;16.33;;;-1.70;99.90;;;;;;4815769;29;20356;-75
2024/01/12 07:43:27;;;;;;;43.45;18.30;;;-1.70;99.90;;;;;;4815235;29;22739;-78
2024/01/12 07:45:59;;;;;;;48.35;17.30;;;-1.40;99.90;;;;;;4813948;29;20199;-78
2024/01/12 07:48:39;;;;;;;48.28;19.48;;;-1.70;99.90;;;;;;4831764;29;20057;-78
2024/01/12 07:51:09;;;;;;;58.88;23.63;;;-1.70;99.90;;;;;;4826710;29;20064;-79
2024/01/12 07:53:38;;;;;;;64.78;24.90;;;-1.60;99.90;;;;;;4831768;29;20069;-79
2024/01/12 07:56:20;;;;;;;31.17;13.83;;;-1.60;99.90;;;;;;4843113;29;20065;-79
2024/01/12 07:58:50;;;;;;;47.90;17.65;;;-1.60;99.90;;;;;;4845402;29;20049;-79
2024/01/12 08:01:23;;;;;;;37.17;16.58;;;-1.60;99.90;;;;;;4796653;29;20057;-77
2024/01/12 08:03:52;;;;;;;59.20;22.30;;;-1.20;99.90;;;;;;4812371;29;20127;-77
2024/01/12 08:06:21;;;;;;;48.78;19.85;;;-0.90;99.90;;;;;;4810347;29;20057;-78
2024/01/12 08:08:50;;;;;;;44.28;17.02;;;-1.60;99.90;;;;;;4807372;29;20057;-77
2024/01/12 08:11:18;;;;;;;43.47;17.48;;;-1.50;99.90;;;;;;4787939;29;20050;-78
2024/01/12 08:14:04;;;;;;;25.45;11.73;;;-1.40;99.90;;;;;;4829328;29;20073;-78
2024/01/12 08:16:33;;;;;;;41.08;15.13;;;-1.40;99.90;;;;;;4817046;29;20061;-78
2024/01/12 08:19:02;;;;;;;39.35;14.05;;;-1.40;99.90;;;;;;4840995;29;20073;-80
2024/01/12 08:21:31;;;;;;;69.90;27.70;;;-1.40;99.90;;;;;;4820516;29;20160;-79
2024/01/12 08:24:16;;;;;;;32.03;13.10;;;-1.40;99.90;;;;;;4834018;29;20080;-79
2024/01/12 08:26:46;;;;;;;29.55;12.05;;;-1.50;99.90;;;;;;4833721;29;20058;-80
2024/01/12 08:29:17;;;;;;;27.83;10.68;;;-1.50;99.90;;;;;;4835359;29;20054;-78
2024/01/12 08:31:46;;;;;;;29.50;10.75;;;-1.50;99.90;;;;;;4834437;29;20685;-78
2024/01/12 08:34:15;;;;;;;28.95;12.30;;;-1.50;99.90;;;;;;4823951;29;20082;-79
2024/01/12 08:36:44;;;;;;;21.63;10.20;;;-1.50;99.90;;;;;;4832225;29;20053;-78
2024/01/12 08:39:13;;;;;;;25.85;10.25;;;-1.50;99.90;;;;;;4833668;29;20053;-79
2024/01/12 08:41:42;;;;;;;36.60;11.25;;;-1.20;99.90;;;;;;4835338;29;20806;-78
2024/01/12 08:44:12;;;;;;;30.92;11.98;;;-0.80;99.90;;;;;;4799022;29;20425;-77
2024/01/12 08:46:42;;;;;;;30.25;11.63;;;-1.50;99.90;;;;;;4794245;29;20087;-77
2024/01/12 08:49:11;;;;;;;26.48;11.02;;;-1.20;99.90;;;;;;4819354;29;20081;-78
2024/01/12 08:51:40;;;;;;;27.25;10.93;;;-1.50;99.90;;;;;;4807322;29;20456;-77
2024/01/12 08:54:08;;;;;;;28.98;10.00;;;-1.50;99.90;;;;;;4820194;29;20069;-80
2024/01/12 08:56:37;;;;;;;24.92;10.25;;;-1.50;99.90;;;;;;4830310;29;20924;-79
2024/01/12 08:59:08;;;;;;;26.60;10.73;;;-1.50;99.90;;;;;;4829133;29;20060;-78
2024/01/12 09:01:37;;;;;;;29.48;9.63;;;-1.50;99.90;;;;;;4857321;29;20045;-79
2024/01/12 09:04:08;;;;;;;30.67;11.25;;;-1.40;99.90;;;;;;4846868;29;20513;-80
2024/01/12 09:06:37;;;;;;;34.17;11.30;;;-1.60;99.90;;;;;;4830180;29;20060;-78
2024/01/12 09:09:07;;;;;;;32.10;11.23;;;-2.00;99.90;;;;;;4841708;29;20037;-78
2024/01/12 09:11:36;;;;;;;24.83;9.23;;;-2.60;99.90;;;;;;4816674;29;20061;-78
2024/01/12 09:14:06;;;;;;;24.38;9.75;;;1.00;99.90;;;;;;4813015;29;20303;-78
2024/01/12 09:16:38;;;;;;;27.23;9.85;;;-0.40;99.90;;;;;;4832490;29;20092;-79
2024/01/12 09:19:09;;;;;;;25.88;10.90;;;-0.70;99.90;;;;;;4811410;29;20053;-78
2024/01/12 09:21:39;;;;;;;30.13;11.20;;;-0.60;99.90;;;;;;4832108;29;20065;-79
2024/01/12 09:24:10;;;;;;;29.48;9.70;;;-0.60;99.90;;;;;;4831479;29;20777;-78
2024/01/12 09:26:39;;;;;;;24.48;8.32;;;0.80;99.90;;;;;;4829879;29;20061;-78
2024/01/12 09:29:11;;;;;;;24.63;8.37;;;0.10;99.90;;;;;;4831925;29;20047;-79
2024/01/12 09:31:40;;;;;;;26.10;10.50;;;0.10;99.90;;;;;;4816054;29;20045;-78
2024/01/12 09:34:11;;;;;;;28.83;11.93;;;-0.40;99.90;;;;;;4814880;29;20061;-79
2024/01/12 09:36:42;;;;;;;53.08;23.88;;;-0.60;99.90;;;;;;4857663;29;20041;-79
2024/01/12 09:39:14;;;;;;;34.38;13.43;;;-0.20;99.90;;;;;;4845431;29;20074;-80
2024/01/12 09:41:45;;;;;;;;;;;-0.60;99.90;;;;;;4831517;29;20070;-79
2024/01/12 09:44:20;;;;;;;24.25;9.52;;;0.60;99.90;;;;;;4812178;29;19998;-79
2024/01/12 09:46:57;;;;;;;22.92;9.52;;;0.10;99.90;;;;;;4830122;29;20119;-79
2024/01/12 09:49:29;;;;;;;25.52;9.65;;;-0.60;99.90;;;;;;4838325;29;20074;-80
2024/01/12 09:52:00;;;;;;;26.73;11.65;;;0.10;99.90;;;;;;4813457;29;20706;-79
2024/01/12 09:54:29;;;;;;;28.80;12.20;;;0.30;99.90;;;;;;4801316;29;20057;-79
2024/01/12 09:56:59;;;;;;;26.67;10.20;;;0.30;99.90;;;;;;4805275;29;20564;-79
2024/01/12 09:59:29;;;;;;;23.23;11.07;;;0.30;99.90;;;;;;4821140;29;20656;-80
2024/01/12 10:01:59;;;;;;;30.08;12.80;;;0.50;99.90;;;;;;4818005;29;20053;-78
2024/01/12 10:04:29;;;;;;;21.10;9.57;;;2.30;99.90;;;;;;4813959;29;22162;-76
2024/01/12 10:06:57;;;;;;;25.65;9.85;;;1.00;99.90;;;;;;4809667;29;20069;-76
2024/01/12 10:09:28;;;;;;;24.40;11.05;;;0.60;99.90;;;;;;4806299;29;20816;-76
2024/01/12 10:11:57;;;;;;;26.23;10.10;;;0.60;99.90;;;;;;4805942;29;20053;-77
2024/01/12 10:14:26;;;;;;;21.90;8.18;;;0.70;99.90;;;;;;4807207;29;20058;-78
2024/01/12 10:16:55;;;;;;;20.55;8.20;;;0.80;99.90;;;;;;4821329;29;20160;-76
2024/01/12 10:19:24;;;;;;;22.90;9.18;;;0.80;99.90;;;;;;4804583;29;20062;-76
2024/01/12 10:21:54;;;;;;;24.77;9.73;;;1.00;99.90;;;;;;4829006;29;20101;-76
2024/01/12 10:24:23;;;;;;;15.40;6.35;;;1.00;99.90;;;;;;4803435;29;20671;-76
2024/01/12 10:26:52;;;;;;;16.20;6.85;;;1.00;99.90;;;;;;4821657;29;20449;-75
2024/01/12 10:29:21;;;;;;;16.17;5.32;;;1.10;99.90;;;;;;4822207;29;20172;-76
2024/01/12 10:31:50;;;;;;;12.13;4.57;;;1.20;99.20;;;;;;4815267;29;20046;-77
2024/01/12 10:34:18;;;;;;;13.60;5.15;;;1.20;99.00;;;;;;4806380;29;20057;-76
2024/01/12 10:36:50;;;;;;;15.55;6.65;;;1.30;98.90;;;;;;4787080;29;20054;-76
2024/01/12 10:39:22;;;;;;;13.40;5.13;;;1.30;98.20;;;;;;4805948;29;20053;-76
2024/01/12 10:41:51;;;;;;;14.45;5.28;;;1.30;98.00;;;;;;4807254;29;20308;-76
2024/01/12 10:44:23;;;;;;;11.32;5.72;;;1.30;98.30;;;;;;4807036;29;20117;-75
2024/01/12 10:46:58;;;;;;;15.40;4.95;;;1.20;97.90;;;;;;4830969;29;20053;-78
2024/01/12 10:49:28;;;;;;;16.05;6.18;;;1.10;98.00;;;;;;4792496;29;21026;-76
2024/01/12 10:52:04;;;;;;;15.68;6.07;;;1.00;98.30;;;;;;4810809;29;20080;-76
2024/01/12 10:54:45;;;;;;;15.23;5.60;;;0.90;98.20;;;;;;4808100;29;20995;-76
2024/01/12 10:57:15;;;;;;;15.63;6.10;;;0.90;98.30;;;;;;4819806;29;21034;-76
2024/01/12 10:59:45;;;;;;;16.75;6.28;;;0.90;98.80;;;;;;4817014;29;20684;-76
2024/01/12 11:02:14;;;;;;;18.17;6.88;;;1.10;99.20;;;;;;4819963;29;20062;-75
2024/01/12 11:04:43;;;;;;;17.08;6.30;;;1.40;99.20;;;;;;4812111;29;20065;-76
2024/01/12 11:07:15;;;;;;;14.65;6.18;;;1.60;98.20;;;;;;4805738;29;20100;-76
2024/01/12 11:09:45;;;;;;;14.55;6.20;;;1.60;97.80;;;;;;4787153;29;20054;-78
2024/01/12 11:12:24;;;;;;;14.70;5.43;;;1.60;97.00;;;;;;4807689;29;20060;-76
2024/01/12 11:14:53;;;;;;;13.27;4.82;;;1.70;97.10;;;;;;4809619;29;20632;-76
2024/01/12 11:17:27;;;;;;;12.55;5.45;;;1.80;96.70;;;;;;4809761;29;20097;-76
2024/01/12 11:20:06;;;;;;;14.35;5.35;;;1.90;96.40;;;;;;4805464;29;20076;-76
2024/01/12 11:22:36;;;;;;;14.70;6.15;;;2.00;96.30;;;;;;4802796;29;20061;-76
2024/01/12 11:25:06;;;;;;;28.88;11.65;;;2.00;95.90;;;;;;4815146;29;20072;-76
2024/01/12 11:27:38;;;;;;;19.60;8.50;;;2.10;96.40;;;;;;4797013;29;20056;-78
2024/01/12 11:30:09;;;;;;;27.98;11.00;;;2.20;96.90;;;;;;4827155;29;20052;-76
2024/01/12 11:32:44;;;;;;;26.02;9.90;;;2.30;97.40;;;;;;4805791;29;20566;-77
2024/01/12 11:35:15;;;;;;;23.45;7.95;;;2.30;97.60;;;;;;4817407;29;20049;-75
2024/01/12 11:37:45;;;;;;;28.60;12.00;;;2.40;97.40;;;;;;4808577;29;20564;-77
2024/01/12 11:40:16;;;;;;;19.67;7.38;;;2.30;96.40;;;;;;4801920;29;20084;-77
2024/01/12 11:42:45;;;;;;;16.35;6.90;;;2.40;96.50;;;;;;4831495;29;20124;-75
2024/01/12 11:45:13;;;;;;;17.70;7.05;;;2.30;96.00;;;;;;4830418;29;20057;-77
2024/01/12 11:47:44;;;;;;;19.63;7.85;;;2.20;96.20;;;;;;4813035;29;20054;-76
2024/01/12 11:50:17;;;;;;;18.50;8.18;;;2.10;95.90;;;;;;4826356;29;20175;-76
2024/01/12 11:52:56;;;;;;;17.83;7.43;;;2.00;96.10;;;;;;4803624;29;20098;-77
2024/01/12 11:55:27;;;;;;;21.48;9.40;;;2.00;96.10;;;;;;4827491;29;20037;-78
2024/01/12 11:57:56;;;;;;;18.30;6.95;;;1.90;96.50;;;;;;4840637;29;21999;-78
2024/01/12 12:00:27;;;;;;;16.83;6.88;;;1.50;96.10;;;;;;4841622;29;20060;-79
2024/01/12 12:02:56;;;;;;;19.30;8.35;;;1.80;95.90;;;;;;4820499;29;20048;-79
2024/01/12 12:05:28;;;;;;;61.40;23.60;;;2.10;95.60;;;;;;4822752;29;20037;-79
2024/01/12 12:07:59;;;;;;;18.42;8.55;;;1.80;95.70;;;;;;4838624;29;20049;-80
2024/01/12 12:10:29;;;;;;;21.05;9.63;;;2.60;95.70;;;;;;4816280;29;20053;-78
2024/01/12 12:13:11;;;;;;;;;;;1.80;95.20;;;;;;4846929;29;20121;-81
2024/01/12 12:15:40;;;;;;;22.13;8.05;;;1.70;95.20;;;;;;4864447;29;20281;-79
2024/01/12 12:18:09;;;;;;;16.40;6.90;;;1.90;95.50;;;;;;4818496;29;20601;-76
2024/01/12 12:20:38;;;;;;;15.07;5.82;;;1.70;95.10;;;;;;4821446;29;20526;-77
2024/01/12 12:23:08;;;;;;;23.65;10.77;;;1.70;95.10;;;;;;4797167;29;22201;-76
2024/01/12 12:25:38;;;;;;;23.90;10.35;;;1.70;95.30;;;;;;4814827;29;20042;-79
2024/01/12 12:28:07;;;;;;;29.85;14.13;;;1.60;95.10;;;;;;4853230;29;20097;-78
2024/01/12 12:30:40;;;;;;;22.50;10.32;;;0.90;95.00;;;;;;4821406;29;20045;-79
2024/01/12 12:33:11;;;;;;;18.73;7.10;;;1.70;95.40;;;;;;4836571;29;20045;-79
2024/01/12 12:35:41;;;;;;;22.90;9.60;;;1.60;95.40;;;;;;4819142;29;20060;-78
2024/01/12 12:38:10;;;;;;;25.10;9.75;;;1.80;95.60;;;;;;4817098;29;20105;-79
2024/01/12 12:40:40;;;;;;;18.02;8.18;;;1.50;95.40;;;;;;4819289;29;20071;-78
2024/01/12 12:43:10;;;;;;;15.77;7.30;;;2.70;95.70;;;;;;4842989;29;20049;-79
2024/01/12 12:45:39;;;;;;;18.00;6.97;;;1.40;94.90;;;;;;4844332;29;20033;-78